sensor_id;sensor_type;location;lat;lon;timestamp;P1;durP1;ratioP1;P2;durP2;ratioP2
11616;SDS011;5864;52.998;9.068;2022-07-29T00:01:21;2.70;;;1.70;;
11616;SDS011;5864;52.998;9.068;2022-07-29T00:03:48;3.23;;;1.97;;
11616;SDS011;5864;52.998;9.068;2022-07-29T00:06:16;3.63;;;2.20;;
11616;SDS011;5864;52.998;9.068;2022-07-29T00:08:45;5.07;;;2.03;;
11616;SDS011;5864;52.998;9.068;2022-07-29T00:11:13;4.23;;;1.60;;
11616;SDS011;5864;52.998;9.068;2022-07-29T00:13:40;5.07;;;1.80;;
11616;SDS011;5864;52.998;9.068;2022-07-29T00:16:07;3.60;;;1.80;;
11616;SDS011;5864;52.998;9.068;2022-07-29T00:18:35;2.13;;;1.87;;
11616;SDS011;5864;52.998;9.068;2022-07-29T00:21:02;4.33;;;1.80;;
11616;SDS011;5864;52.998;9.068;2022-07-29T00:23:30;4.27;;;1.90;;
11616;SDS011;5864;52.998;9.068;2022-07-29T00:25:59;5.60;;;1.60;;
11616;SDS011;5864;52.998;9.068;2022-07-29T00:28:26;2.53;;;1.70;;
11616;SDS011;5864;52.998;9.068;2022-07-29T00:30:54;2.97;;;1.87;;
11616;SDS011;5864;52.998;9.068;2022-07-29T00:33:21;4.77;;;1.60;;
11616;SDS011;5864;52.998;9.068;2022-07-29T00:35:49;5.80;;;1.60;;
11616;SDS011;5864;52.998;9.068;2022-07-29T00:38:16;3.20;;;1.70;;
11616;SDS011;5864;52.998;9.068;2022-07-29T00:40:45;2.97;;;1.60;;
11616;SDS011;5864;52.998;9.068;2022-07-29T00:43:15;2.67;;;1.50;;
11616;SDS011;5864;52.998;9.068;2022-07-29T00:45:44;4.20;;;1.70;;
11616;SDS011;5864;52.998;9.068;2022-07-29T00:48:11;2.97;;;1.63;;
11616;SDS011;5864;52.998;9.068;2022-07-29T00:50:39;4.17;;;1.80;;
11616;SDS011;5864;52.998;9.068;2022-07-29T00:53:07;3.83;;;1.67;;
11616;SDS011;5864;52.998;9.068;2022-07-29T00:55:35;1.97;;;1.70;;
11616;SDS011;5864;52.998;9.068;2022-07-29T00:58:02;3.77;;;2.00;;
11616;SDS011;5864;52.998;9.068;2022-07-29T01:00:31;8.47;;;2.70;;
11616;SDS011;5864;52.998;9.068;2022-07-29T01:03:00;3.43;;;1.80;;
11616;SDS011;5864;52.998;9.068;2022-07-29T01:05:27;2.03;;;1.40;;
11616;SDS011;5864;52.998;9.068;2022-07-29T01:07:55;5.10;;;1.97;;
11616;SDS011;5864;52.998;9.068;2022-07-29T01:10:25;3.73;;;2.17;;
11616;SDS011;5864;52.998;9.068;2022-07-29T01:12:53;2.60;;;1.70;;
11616;SDS011;5864;52.998;9.068;2022-07-29T01:15:23;4.53;;;1.73;;
11616;SDS011;5864;52.998;9.068;2022-07-29T01:17:54;3.50;;;1.80;;
11616;SDS011;5864;52.998;9.068;2022-07-29T01:20:30;4.03;;;2.00;;
11616;SDS011;5864;52.998;9.068;2022-07-29T01:23:30;3.13;;;1.83;;
11616;SDS011;5864;52.998;9.068;2022-07-29T01:26:22;3.80;;;1.80;;
11616;SDS011;5864;52.998;9.068;2022-07-29T01:29:03;3.20;;;1.77;;
11616;SDS011;5864;52.998;9.068;2022-07-29T01:31:38;2.33;;;1.80;;
11616;SDS011;5864;52.998;9.068;2022-07-29T01:34:16;2.90;;;1.63;;
11616;SDS011;5864;52.998;9.068;2022-07-29T01:36:50;3.83;;;2.03;;
11616;SDS011;5864;52.998;9.068;2022-07-29T01:39:23;5.37;;;1.80;;
11616;SDS011;5864;52.998;9.068;2022-07-29T01:41:56;4.47;;;1.97;;
11616;SDS011;5864;52.998;9.068;2022-07-29T01:44:33;2.67;;;1.87;;
11616;SDS011;5864;52.998;9.068;2022-07-29T01:47:05;2.73;;;1.63;;
11616;SDS011;5864;52.998;9.068;2022-07-29T01:49:43;4.23;;;1.90;;
11616;SDS011;5864;52.998;9.068;2022-07-29T01:52:15;5.47;;;2.00;;
11616;SDS011;5864;52.998;9.068;2022-07-29T01:54:48;3.23;;;1.80;;
11616;SDS011;5864;52.998;9.068;2022-07-29T01:57:23;5.57;;;1.97;;
11616;SDS011;5864;52.998;9.068;2022-07-29T01:59:56;5.13;;;1.70;;
11616;SDS011;5864;52.998;9.068;2022-07-29T02:02:25;5.03;;;1.90;;
11616;SDS011;5864;52.998;9.068;2022-07-29T02:04:54;5.77;;;1.97;;
11616;SDS011;5864;52.998;9.068;2022-07-29T02:07:23;2.60;;;2.03;;
11616;SDS011;5864;52.998;9.068;2022-07-29T02:09:53;5.23;;;1.87;;
11616;SDS011;5864;52.998;9.068;2022-07-29T02:12:22;6.60;;;2.13;;
11616;SDS011;5864;52.998;9.068;2022-07-29T02:14:52;4.37;;;2.00;;
11616;SDS011;5864;52.998;9.068;2022-07-29T02:17:23;5.37;;;2.00;;
11616;SDS011;5864;52.998;9.068;2022-07-29T02:19:55;3.30;;;1.93;;
11616;SDS011;5864;52.998;9.068;2022-07-29T02:22:25;8.40;;;2.43;;
11616;SDS011;5864;52.998;9.068;2022-07-29T02:24:56;2.97;;;2.03;;
11616;SDS011;5864;52.998;9.068;2022-07-29T02:27:24;2.87;;;1.90;;
11616;SDS011;5864;52.998;9.068;2022-07-29T02:29:55;3.13;;;1.93;;
11616;SDS011;5864;52.998;9.068;2022-07-29T02:32:25;3.67;;;1.73;;
11616;SDS011;5864;52.998;9.068;2022-07-29T02:34:54;2.97;;;1.83;;
11616;SDS011;5864;52.998;9.068;2022-07-29T02:37:23;3.50;;;2.23;;
11616;SDS011;5864;52.998;9.068;2022-07-29T02:39:51;3.10;;;1.97;;
11616;SDS011;5864;52.998;9.068;2022-07-29T02:42:21;3.23;;;1.70;;
11616;SDS011;5864;52.998;9.068;2022-07-29T02:44:50;3.60;;;2.10;;
11616;SDS011;5864;52.998;9.068;2022-07-29T02:47:19;5.63;;;2.00;;
11616;SDS011;5864;52.998;9.068;2022-07-29T02:49:53;4.53;;;1.87;;
11616;SDS011;5864;52.998;9.068;2022-07-29T02:52:27;3.43;;;2.23;;
11616;SDS011;5864;52.998;9.068;2022-07-29T02:55:00;4.90;;;1.90;;
11616;SDS011;5864;52.998;9.068;2022-07-29T02:57:32;3.17;;;2.10;;
11616;SDS011;5864;52.998;9.068;2022-07-29T03:00:04;4.43;;;2.20;;
11616;SDS011;5864;52.998;9.068;2022-07-29T03:02:35;3.57;;;1.97;;
11616;SDS011;5864;52.998;9.068;2022-07-29T03:05:06;12.17;;;2.27;;
11616;SDS011;5864;52.998;9.068;2022-07-29T03:07:37;2.87;;;1.90;;
11616;SDS011;5864;52.998;9.068;2022-07-29T03:10:07;2.60;;;1.90;;
11616;SDS011;5864;52.998;9.068;2022-07-29T03:12:35;4.63;;;1.90;;
11616;SDS011;5864;52.998;9.068;2022-07-29T03:15:03;2.07;;;1.83;;
11616;SDS011;5864;52.998;9.068;2022-07-29T03:17:32;2.40;;;1.60;;
11616;SDS011;5864;52.998;9.068;2022-07-29T03:20:01;4.27;;;2.20;;
11616;SDS011;5864;52.998;9.068;2022-07-29T03:22:30;3.03;;;1.63;;
11616;SDS011;5864;52.998;9.068;2022-07-29T03:24:58;3.40;;;2.27;;
11616;SDS011;5864;52.998;9.068;2022-07-29T03:27:34;4.13;;;1.90;;
11616;SDS011;5864;52.998;9.068;2022-07-29T03:30:02;2.03;;;1.87;;
11616;SDS011;5864;52.998;9.068;2022-07-29T03:32:30;3.03;;;1.93;;
11616;SDS011;5864;52.998;9.068;2022-07-29T03:34:58;2.73;;;1.80;;
11616;SDS011;5864;52.998;9.068;2022-07-29T03:37:25;3.63;;;1.87;;
11616;SDS011;5864;52.998;9.068;2022-07-29T03:39:55;5.10;;;1.80;;
11616;SDS011;5864;52.998;9.068;2022-07-29T03:42:24;4.43;;;2.00;;
11616;SDS011;5864;52.998;9.068;2022-07-29T03:44:54;3.83;;;1.90;;
11616;SDS011;5864;52.998;9.068;2022-07-29T03:47:24;3.70;;;1.83;;
11616;SDS011;5864;52.998;9.068;2022-07-29T03:49:55;5.63;;;2.13;;
11616;SDS011;5864;52.998;9.068;2022-07-29T03:52:28;2.63;;;1.93;;
11616;SDS011;5864;52.998;9.068;2022-07-29T03:54:57;3.63;;;2.10;;
11616;SDS011;5864;52.998;9.068;2022-07-29T03:57:26;4.70;;;1.93;;
11616;SDS011;5864;52.998;9.068;2022-07-29T03:59:54;3.50;;;2.13;;
11616;SDS011;5864;52.998;9.068;2022-07-29T04:02:22;4.63;;;2.00;;
11616;SDS011;5864;52.998;9.068;2022-07-29T04:04:51;4.70;;;1.90;;
11616;SDS011;5864;52.998;9.068;2022-07-29T04:07:19;5.10;;;2.20;;
11616;SDS011;5864;52.998;9.068;2022-07-29T04:09:46;3.90;;;2.33;;
11616;SDS011;5864;52.998;9.068;2022-07-29T04:12:15;3.07;;;2.10;;
11616;SDS011;5864;52.998;9.068;2022-07-29T04:14:43;6.20;;;2.37;;
11616;SDS011;5864;52.998;9.068;2022-07-29T04:17:10;4.57;;;1.90;;
11616;SDS011;5864;52.998;9.068;2022-07-29T04:19:38;2.40;;;2.13;;
11616;SDS011;5864;52.998;9.068;2022-07-29T04:22:05;5.30;;;2.43;;
11616;SDS011;5864;52.998;9.068;2022-07-29T04:24:32;6.57;;;2.30;;
11616;SDS011;5864;52.998;9.068;2022-07-29T04:27:01;5.60;;;2.27;;
11616;SDS011;5864;52.998;9.068;2022-07-29T04:29:30;4.27;;;2.30;;
11616;SDS011;5864;52.998;9.068;2022-07-29T04:31:57;2.60;;;2.23;;
11616;SDS011;5864;52.998;9.068;2022-07-29T04:34:25;4.17;;;2.20;;
11616;SDS011;5864;52.998;9.068;2022-07-29T04:36:52;3.93;;;2.60;;
11616;SDS011;5864;52.998;9.068;2022-07-29T04:39:19;6.33;;;2.17;;
11616;SDS011;5864;52.998;9.068;2022-07-29T04:41:47;5.30;;;2.43;;
11616;SDS011;5864;52.998;9.068;2022-07-29T04:44:15;4.83;;;2.30;;
11616;SDS011;5864;52.998;9.068;2022-07-29T04:46:44;3.37;;;2.20;;
11616;SDS011;5864;52.998;9.068;2022-07-29T04:49:12;8.90;;;2.60;;
11616;SDS011;5864;52.998;9.068;2022-07-29T04:51:39;6.00;;;2.10;;
11616;SDS011;5864;52.998;9.068;2022-07-29T04:54:07;4.43;;;2.53;;
11616;SDS011;5864;52.998;9.068;2022-07-29T04:56:34;4.93;;;2.33;;
11616;SDS011;5864;52.998;9.068;2022-07-29T04:59:02;4.77;;;2.43;;
11616;SDS011;5864;52.998;9.068;2022-07-29T05:01:29;4.73;;;2.80;;
11616;SDS011;5864;52.998;9.068;2022-07-29T05:03:58;4.27;;;2.13;;
11616;SDS011;5864;52.998;9.068;2022-07-29T05:06:25;5.10;;;2.37;;
11616;SDS011;5864;52.998;9.068;2022-07-29T05:08:53;5.63;;;2.20;;
11616;SDS011;5864;52.998;9.068;2022-07-29T05:11:20;3.00;;;2.27;;
11616;SDS011;5864;52.998;9.068;2022-07-29T05:13:48;5.07;;;2.77;;
11616;SDS011;5864;52.998;9.068;2022-07-29T05:16:15;5.30;;;2.37;;
11616;SDS011;5864;52.998;9.068;2022-07-29T05:18:43;4.37;;;2.87;;
11616;SDS011;5864;52.998;9.068;2022-07-29T05:21:12;3.53;;;2.50;;
11616;SDS011;5864;52.998;9.068;2022-07-29T05:23:39;4.03;;;2.33;;
11616;SDS011;5864;52.998;9.068;2022-07-29T05:26:06;4.10;;;2.20;;
11616;SDS011;5864;52.998;9.068;2022-07-29T05:28:34;6.37;;;2.80;;
11616;SDS011;5864;52.998;9.068;2022-07-29T05:31:02;4.20;;;2.43;;
11616;SDS011;5864;52.998;9.068;2022-07-29T05:33:29;5.30;;;2.27;;
11616;SDS011;5864;52.998;9.068;2022-07-29T05:35:57;3.53;;;2.33;;
11616;SDS011;5864;52.998;9.068;2022-07-29T05:38:26;3.40;;;2.30;;
11616;SDS011;5864;52.998;9.068;2022-07-29T05:40:55;4.10;;;2.50;;
11616;SDS011;5864;52.998;9.068;2022-07-29T05:43:24;6.47;;;2.27;;
11616;SDS011;5864;52.998;9.068;2022-07-29T05:45:51;5.10;;;2.50;;
11616;SDS011;5864;52.998;9.068;2022-07-29T05:48:18;3.97;;;2.40;;
11616;SDS011;5864;52.998;9.068;2022-07-29T05:50:46;5.33;;;2.73;;
11616;SDS011;5864;52.998;9.068;2022-07-29T05:53:14;5.40;;;2.50;;
11616;SDS011;5864;52.998;9.068;2022-07-29T05:55:43;7.07;;;2.40;;
11616;SDS011;5864;52.998;9.068;2022-07-29T05:58:10;6.63;;;2.37;;
11616;SDS011;5864;52.998;9.068;2022-07-29T06:00:38;3.53;;;2.10;;
11616;SDS011;5864;52.998;9.068;2022-07-29T06:03:05;3.13;;;2.03;;
11616;SDS011;5864;52.998;9.068;2022-07-29T06:05:33;4.37;;;2.47;;
11616;SDS011;5864;52.998;9.068;2022-07-29T06:08:00;4.47;;;2.77;;
11616;SDS011;5864;52.998;9.068;2022-07-29T06:10:28;3.67;;;2.57;;
11616;SDS011;5864;52.998;9.068;2022-07-29T06:12:57;6.13;;;2.43;;
11616;SDS011;5864;52.998;9.068;2022-07-29T06:15:25;4.57;;;2.60;;
11616;SDS011;5864;52.998;9.068;2022-07-29T06:17:53;3.13;;;2.50;;
11616;SDS011;5864;52.998;9.068;2022-07-29T06:20:21;2.87;;;2.40;;
11616;SDS011;5864;52.998;9.068;2022-07-29T06:22:48;4.17;;;2.43;;
11616;SDS011;5864;52.998;9.068;2022-07-29T06:25:16;4.87;;;2.47;;
11616;SDS011;5864;52.998;9.068;2022-07-29T06:27:43;5.77;;;2.73;;
11616;SDS011;5864;52.998;9.068;2022-07-29T06:30:13;5.33;;;2.80;;
11616;SDS011;5864;52.998;9.068;2022-07-29T06:32:41;9.60;;;3.03;;
11616;SDS011;5864;52.998;9.068;2022-07-29T06:35:09;5.00;;;2.67;;
11616;SDS011;5864;52.998;9.068;2022-07-29T06:37:37;3.97;;;2.47;;
11616;SDS011;5864;52.998;9.068;2022-07-29T06:40:04;4.13;;;2.60;;
11616;SDS011;5864;52.998;9.068;2022-07-29T06:42:50;3.93;;;2.60;;
11616;SDS011;5864;52.998;9.068;2022-07-29T06:45:19;4.10;;;2.30;;
11616;SDS011;5864;52.998;9.068;2022-07-29T06:47:46;8.90;;;2.73;;
11616;SDS011;5864;52.998;9.068;2022-07-29T06:50:15;4.10;;;2.70;;
11616;SDS011;5864;52.998;9.068;2022-07-29T06:52:43;5.70;;;2.70;;
11616;SDS011;5864;52.998;9.068;2022-07-29T06:55:10;5.00;;;2.50;;
11616;SDS011;5864;52.998;9.068;2022-07-29T06:57:38;4.13;;;2.90;;
11616;SDS011;5864;52.998;9.068;2022-07-29T07:00:06;6.43;;;3.10;;
11616;SDS011;5864;52.998;9.068;2022-07-29T07:02:36;3.27;;;2.40;;
11616;SDS011;5864;52.998;9.068;2022-07-29T07:05:03;5.23;;;2.53;;
11616;SDS011;5864;52.998;9.068;2022-07-29T07:07:31;4.20;;;2.80;;
11616;SDS011;5864;52.998;9.068;2022-07-29T07:09:59;6.03;;;2.90;;
11616;SDS011;5864;52.998;9.068;2022-07-29T07:12:27;7.87;;;2.60;;
11616;SDS011;5864;52.998;9.068;2022-07-29T07:14:54;4.80;;;2.50;;
11616;SDS011;5864;52.998;9.068;2022-07-29T07:17:21;7.50;;;2.23;;
11616;SDS011;5864;52.998;9.068;2022-07-29T07:19:51;4.83;;;2.73;;
11616;SDS011;5864;52.998;9.068;2022-07-29T07:22:19;4.87;;;2.57;;
11616;SDS011;5864;52.998;9.068;2022-07-29T07:24:46;5.30;;;2.37;;
11616;SDS011;5864;52.998;9.068;2022-07-29T07:27:14;3.43;;;2.60;;
11616;SDS011;5864;52.998;9.068;2022-07-29T07:29:41;4.17;;;2.57;;
11616;SDS011;5864;52.998;9.068;2022-07-29T07:32:09;4.90;;;2.50;;
11616;SDS011;5864;52.998;9.068;2022-07-29T07:34:38;5.83;;;2.73;;
11616;SDS011;5864;52.998;9.068;2022-07-29T07:37:07;8.07;;;2.87;;
11616;SDS011;5864;52.998;9.068;2022-07-29T07:39:35;2.80;;;2.20;;
11616;SDS011;5864;52.998;9.068;2022-07-29T07:42:02;4.57;;;2.37;;
11616;SDS011;5864;52.998;9.068;2022-07-29T07:44:30;4.83;;;2.50;;
11616;SDS011;5864;52.998;9.068;2022-07-29T07:46:57;3.60;;;2.23;;
11616;SDS011;5864;52.998;9.068;2022-07-29T07:49:24;5.93;;;2.50;;
11616;SDS011;5864;52.998;9.068;2022-07-29T07:51:52;5.87;;;2.50;;
11616;SDS011;5864;52.998;9.068;2022-07-29T07:54:21;4.67;;;2.47;;
11616;SDS011;5864;52.998;9.068;2022-07-29T07:56:48;3.97;;;2.80;;
11616;SDS011;5864;52.998;9.068;2022-07-29T07:59:16;3.63;;;2.87;;
11616;SDS011;5864;52.998;9.068;2022-07-29T08:01:44;8.03;;;2.67;;
11616;SDS011;5864;52.998;9.068;2022-07-29T08:04:12;4.33;;;2.30;;
11616;SDS011;5864;52.998;9.068;2022-07-29T08:06:39;5.80;;;2.67;;
11616;SDS011;5864;52.998;9.068;2022-07-29T08:09:06;6.57;;;2.33;;
11616;SDS011;5864;52.998;9.068;2022-07-29T08:11:35;4.10;;;2.40;;
11616;SDS011;5864;52.998;9.068;2022-07-29T08:14:03;5.07;;;2.50;;
11616;SDS011;5864;52.998;9.068;2022-07-29T08:16:30;4.43;;;2.33;;
11616;SDS011;5864;52.998;9.068;2022-07-29T08:18:58;4.03;;;2.30;;
11616;SDS011;5864;52.998;9.068;2022-07-29T08:21:25;4.60;;;2.00;;
11616;SDS011;5864;52.998;9.068;2022-07-29T08:23:53;7.30;;;2.40;;
11616;SDS011;5864;52.998;9.068;2022-07-29T08:26:42;3.63;;;2.07;;
11616;SDS011;5864;52.998;9.068;2022-07-29T08:29:11;5.30;;;2.40;;
11616;SDS011;5864;52.998;9.068;2022-07-29T08:31:39;3.60;;;2.23;;
11616;SDS011;5864;52.998;9.068;2022-07-29T08:34:07;4.30;;;2.10;;
11616;SDS011;5864;52.998;9.068;2022-07-29T08:36:35;5.07;;;2.00;;
11616;SDS011;5864;52.998;9.068;2022-07-29T08:39:02;4.90;;;2.17;;
11616;SDS011;5864;52.998;9.068;2022-07-29T08:41:30;3.30;;;2.10;;
11616;SDS011;5864;52.998;9.068;2022-07-29T08:43:59;3.30;;;1.93;;
11616;SDS011;5864;52.998;9.068;2022-07-29T08:46:27;4.77;;;2.20;;
11616;SDS011;5864;52.998;9.068;2022-07-29T08:48:54;5.27;;;2.10;;
11616;SDS011;5864;52.998;9.068;2022-07-29T08:51:22;4.77;;;2.07;;
11616;SDS011;5864;52.998;9.068;2022-07-29T08:53:52;4.03;;;2.10;;
11616;SDS011;5864;52.998;9.068;2022-07-29T08:56:20;3.57;;;1.77;;
11616;SDS011;5864;52.998;9.068;2022-07-29T08:58:47;4.40;;;2.30;;
11616;SDS011;5864;52.998;9.068;2022-07-29T09:01:17;2.33;;;1.80;;
11616;SDS011;5864;52.998;9.068;2022-07-29T09:03:49;4.23;;;1.87;;
11616;SDS011;5864;52.998;9.068;2022-07-29T09:06:21;5.63;;;2.10;;
11616;SDS011;5864;52.998;9.068;2022-07-29T09:08:52;3.67;;;2.00;;
11616;SDS011;5864;52.998;9.068;2022-07-29T09:11:19;4.43;;;2.00;;
11616;SDS011;5864;52.998;9.068;2022-07-29T09:13:47;4.80;;;2.20;;
11616;SDS011;5864;52.998;9.068;2022-07-29T09:16:16;2.80;;;1.77;;
11616;SDS011;5864;52.998;9.068;2022-07-29T09:18:44;3.57;;;2.07;;
11616;SDS011;5864;52.998;9.068;2022-07-29T09:21:13;3.00;;;1.80;;
11616;SDS011;5864;52.998;9.068;2022-07-29T09:23:59;3.30;;;1.90;;
11616;SDS011;5864;52.998;9.068;2022-07-29T09:26:32;6.67;;;2.30;;
11616;SDS011;5864;52.998;9.068;2022-07-29T09:29:01;3.30;;;1.97;;
11616;SDS011;5864;52.998;9.068;2022-07-29T09:31:36;5.30;;;1.97;;
11616;SDS011;5864;52.998;9.068;2022-07-29T09:34:05;4.57;;;2.00;;
11616;SDS011;5864;52.998;9.068;2022-07-29T09:36:38;6.67;;;2.50;;
11616;SDS011;5864;52.998;9.068;2022-07-29T09:39:06;6.33;;;2.00;;
11616;SDS011;5864;52.998;9.068;2022-07-29T09:44:19;3.73;;;2.00;;
11616;SDS011;5864;52.998;9.068;2022-07-29T09:46:58;7.53;;;2.57;;
11616;SDS011;5864;52.998;9.068;2022-07-29T09:49:31;5.83;;;2.10;;
11616;SDS011;5864;52.998;9.068;2022-07-29T09:52:00;4.83;;;2.00;;
11616;SDS011;5864;52.998;9.068;2022-07-29T09:54:30;7.63;;;2.43;;
11616;SDS011;5864;52.998;9.068;2022-07-29T09:57:02;5.50;;;2.10;;
11616;SDS011;5864;52.998;9.068;2022-07-29T09:59:31;2.50;;;1.87;;
11616;SDS011;5864;52.998;9.068;2022-07-29T10:02:00;4.57;;;2.13;;
11616;SDS011;5864;52.998;9.068;2022-07-29T10:04:37;3.27;;;2.03;;
11616;SDS011;5864;52.998;9.068;2022-07-29T10:07:06;4.37;;;2.13;;
11616;SDS011;5864;52.998;9.068;2022-07-29T10:09:34;5.70;;;2.23;;
11616;SDS011;5864;52.998;9.068;2022-07-29T10:12:02;4.60;;;2.40;;
11616;SDS011;5864;52.998;9.068;2022-07-29T10:14:30;3.03;;;1.80;;
11616;SDS011;5864;52.998;9.068;2022-07-29T10:17:00;2.97;;;1.77;;
11616;SDS011;5864;52.998;9.068;2022-07-29T10:19:28;2.33;;;1.70;;
11616;SDS011;5864;52.998;9.068;2022-07-29T10:21:57;3.10;;;2.00;;
11616;SDS011;5864;52.998;9.068;2022-07-29T10:24:24;4.73;;;2.00;;
11616;SDS011;5864;52.998;9.068;2022-07-29T10:26:53;3.03;;;1.80;;
11616;SDS011;5864;52.998;9.068;2022-07-29T10:29:22;3.50;;;1.53;;
11616;SDS011;5864;52.998;9.068;2022-07-29T10:31:52;4.37;;;2.00;;
11616;SDS011;5864;52.998;9.068;2022-07-29T10:34:31;4.50;;;2.23;;
11616;SDS011;5864;52.998;9.068;2022-07-29T10:37:12;8.33;;;2.30;;
11616;SDS011;5864;52.998;9.068;2022-07-29T10:39:50;3.03;;;1.67;;
11616;SDS011;5864;52.998;9.068;2022-07-29T10:42:28;3.90;;;1.70;;
11616;SDS011;5864;52.998;9.068;2022-07-29T10:44:56;4.37;;;2.03;;
11616;SDS011;5864;52.998;9.068;2022-07-29T10:47:25;4.70;;;1.93;;
11616;SDS011;5864;52.998;9.068;2022-07-29T10:49:58;2.77;;;1.60;;
11616;SDS011;5864;52.998;9.068;2022-07-29T10:55:33;4.80;;;1.83;;
11616;SDS011;5864;52.998;9.068;2022-07-29T10:58:11;5.37;;;2.00;;
11616;SDS011;5864;52.998;9.068;2022-07-29T11:00:40;5.20;;;1.77;;
11616;SDS011;5864;52.998;9.068;2022-07-29T11:03:08;6.13;;;2.17;;
11616;SDS011;5864;52.998;9.068;2022-07-29T11:05:52;3.17;;;1.63;;
11616;SDS011;5864;52.998;9.068;2022-07-29T11:08:22;3.73;;;1.80;;
11616;SDS011;5864;52.998;9.068;2022-07-29T11:10:52;7.33;;;1.90;;
11616;SDS011;5864;52.998;9.068;2022-07-29T11:13:49;6.13;;;1.90;;
11616;SDS011;5864;52.998;9.068;2022-07-29T11:16:20;3.83;;;2.27;;
11616;SDS011;5864;52.998;9.068;2022-07-29T11:21:49;4.13;;;2.27;;
11616;SDS011;5864;52.998;9.068;2022-07-29T11:24:18;5.40;;;1.80;;
11616;SDS011;5864;52.998;9.068;2022-07-29T11:27:08;5.17;;;1.70;;
11616;SDS011;5864;52.998;9.068;2022-07-29T11:29:38;4.50;;;2.00;;
11616;SDS011;5864;52.998;9.068;2022-07-29T11:32:08;3.27;;;1.53;;
11616;SDS011;5864;52.998;9.068;2022-07-29T11:34:36;2.50;;;1.80;;
11616;SDS011;5864;52.998;9.068;2022-07-29T11:37:20;3.37;;;1.70;;
11616;SDS011;5864;52.998;9.068;2022-07-29T11:40:08;3.50;;;1.60;;
11616;SDS011;5864;52.998;9.068;2022-07-29T11:42:44;6.63;;;1.97;;
11616;SDS011;5864;52.998;9.068;2022-07-29T11:45:16;3.57;;;1.57;;
11616;SDS011;5864;52.998;9.068;2022-07-29T11:47:49;4.83;;;2.00;;
11616;SDS011;5864;52.998;9.068;2022-07-29T11:50:26;4.70;;;1.80;;
11616;SDS011;5864;52.998;9.068;2022-07-29T11:52:58;5.17;;;1.57;;
11616;SDS011;5864;52.998;9.068;2022-07-29T11:55:26;5.10;;;1.60;;
11616;SDS011;5864;52.998;9.068;2022-07-29T11:57:55;3.13;;;1.70;;
11616;SDS011;5864;52.998;9.068;2022-07-29T12:00:29;5.10;;;2.00;;
11616;SDS011;5864;52.998;9.068;2022-07-29T12:02:58;4.43;;;1.50;;
11616;SDS011;5864;52.998;9.068;2022-07-29T12:05:30;3.40;;;1.67;;
11616;SDS011;5864;52.998;9.068;2022-07-29T12:08:10;5.13;;;1.60;;
11616;SDS011;5864;52.998;9.068;2022-07-29T12:10:40;4.73;;;1.90;;
11616;SDS011;5864;52.998;9.068;2022-07-29T12:13:09;3.13;;;1.60;;
11616;SDS011;5864;52.998;9.068;2022-07-29T12:15:36;3.20;;;1.80;;
11616;SDS011;5864;52.998;9.068;2022-07-29T12:18:11;3.43;;;1.83;;
11616;SDS011;5864;52.998;9.068;2022-07-29T12:20:40;4.33;;;1.80;;
11616;SDS011;5864;52.998;9.068;2022-07-29T12:23:09;2.53;;;1.60;;
11616;SDS011;5864;52.998;9.068;2022-07-29T12:25:39;3.53;;;1.60;;
11616;SDS011;5864;52.998;9.068;2022-07-29T12:28:08;3.73;;;1.60;;
11616;SDS011;5864;52.998;9.068;2022-07-29T12:30:42;2.07;;;1.40;;
11616;SDS011;5864;52.998;9.068;2022-07-29T12:33:11;2.73;;;1.50;;
11616;SDS011;5864;52.998;9.068;2022-07-29T12:35:41;5.33;;;2.03;;
11616;SDS011;5864;52.998;9.068;2022-07-29T12:38:12;3.50;;;1.80;;
11616;SDS011;5864;52.998;9.068;2022-07-29T12:40:40;3.23;;;1.57;;
11616;SDS011;5864;52.998;9.068;2022-07-29T12:43:09;3.20;;;1.60;;
11616;SDS011;5864;52.998;9.068;2022-07-29T12:45:38;3.30;;;1.60;;
11616;SDS011;5864;52.998;9.068;2022-07-29T12:48:08;2.47;;;1.60;;
11616;SDS011;5864;52.998;9.068;2022-07-29T12:50:37;6.03;;;1.70;;
11616;SDS011;5864;52.998;9.068;2022-07-29T12:53:20;5.90;;;1.70;;
11616;SDS011;5864;52.998;9.068;2022-07-29T12:55:49;4.43;;;2.07;;
11616;SDS011;5864;52.998;9.068;2022-07-29T12:58:28;2.57;;;1.60;;
11616;SDS011;5864;52.998;9.068;2022-07-29T13:01:03;6.70;;;1.93;;
11616;SDS011;5864;52.998;9.068;2022-07-29T13:03:46;3.43;;;1.97;;
11616;SDS011;5864;52.998;9.068;2022-07-29T13:06:27;3.90;;;1.73;;
11616;SDS011;5864;52.998;9.068;2022-07-29T13:09:00;2.10;;;1.47;;
11616;SDS011;5864;52.998;9.068;2022-07-29T13:11:30;3.40;;;1.90;;
11616;SDS011;5864;52.998;9.068;2022-07-29T13:13:58;4.23;;;1.93;;
11616;SDS011;5864;52.998;9.068;2022-07-29T13:16:26;4.73;;;1.93;;
11616;SDS011;5864;52.998;9.068;2022-07-29T13:19:03;3.50;;;2.10;;
11616;SDS011;5864;52.998;9.068;2022-07-29T13:21:32;4.50;;;1.83;;
11616;SDS011;5864;52.998;9.068;2022-07-29T13:24:01;4.13;;;1.60;;
11616;SDS011;5864;52.998;9.068;2022-07-29T13:26:29;4.43;;;2.10;;
11616;SDS011;5864;52.998;9.068;2022-07-29T13:28:57;4.20;;;1.60;;
11616;SDS011;5864;52.998;9.068;2022-07-29T13:31:24;4.63;;;2.00;;
11616;SDS011;5864;52.998;9.068;2022-07-29T13:33:52;4.40;;;2.00;;
11616;SDS011;5864;52.998;9.068;2022-07-29T13:36:19;3.20;;;2.00;;
11616;SDS011;5864;52.998;9.068;2022-07-29T13:38:47;4.13;;;1.80;;
11616;SDS011;5864;52.998;9.068;2022-07-29T13:41:16;4.83;;;1.80;;
11616;SDS011;5864;52.998;9.068;2022-07-29T13:43:43;4.87;;;1.87;;
11616;SDS011;5864;52.998;9.068;2022-07-29T13:46:11;5.03;;;1.83;;
11616;SDS011;5864;52.998;9.068;2022-07-29T13:48:39;3.57;;;1.70;;
11616;SDS011;5864;52.998;9.068;2022-07-29T13:51:06;3.70;;;1.70;;
11616;SDS011;5864;52.998;9.068;2022-07-29T13:53:34;3.80;;;1.90;;
11616;SDS011;5864;52.998;9.068;2022-07-29T13:56:01;4.30;;;2.00;;
11616;SDS011;5864;52.998;9.068;2022-07-29T13:58:32;4.03;;;2.03;;
11616;SDS011;5864;52.998;9.068;2022-07-29T14:01:00;4.57;;;1.90;;
11616;SDS011;5864;52.998;9.068;2022-07-29T14:03:29;5.33;;;1.57;;
11616;SDS011;5864;52.998;9.068;2022-07-29T14:05:57;7.10;;;1.90;;
11616;SDS011;5864;52.998;9.068;2022-07-29T14:08:25;3.80;;;1.80;;
11616;SDS011;5864;52.998;9.068;2022-07-29T14:10:53;5.30;;;1.80;;
11616;SDS011;5864;52.998;9.068;2022-07-29T14:13:20;6.03;;;1.80;;
11616;SDS011;5864;52.998;9.068;2022-07-29T14:15:49;6.27;;;1.90;;
11616;SDS011;5864;52.998;9.068;2022-07-29T14:18:17;5.47;;;1.97;;
11616;SDS011;5864;52.998;9.068;2022-07-29T14:20:44;3.73;;;1.73;;
11616;SDS011;5864;52.998;9.068;2022-07-29T14:23:12;4.03;;;1.90;;
11616;SDS011;5864;52.998;9.068;2022-07-29T14:25:39;3.83;;;1.83;;
11616;SDS011;5864;52.998;9.068;2022-07-29T14:28:06;5.80;;;1.90;;
11616;SDS011;5864;52.998;9.068;2022-07-29T14:30:34;4.50;;;2.00;;
11616;SDS011;5864;52.998;9.068;2022-07-29T14:33:03;3.77;;;1.87;;
11616;SDS011;5864;52.998;9.068;2022-07-29T14:35:31;4.87;;;2.10;;
11616;SDS011;5864;52.998;9.068;2022-07-29T14:37:58;6.40;;;2.20;;
11616;SDS011;5864;52.998;9.068;2022-07-29T14:40:26;2.20;;;1.70;;
11616;SDS011;5864;52.998;9.068;2022-07-29T14:42:53;3.57;;;1.90;;
11616;SDS011;5864;52.998;9.068;2022-07-29T14:45:21;2.90;;;1.77;;
11616;SDS011;5864;52.998;9.068;2022-07-29T14:47:48;5.10;;;2.07;;
11616;SDS011;5864;52.998;9.068;2022-07-29T14:50:17;5.40;;;2.43;;
11616;SDS011;5864;52.998;9.068;2022-07-29T14:52:45;4.20;;;1.93;;
11616;SDS011;5864;52.998;9.068;2022-07-29T14:55:12;4.13;;;2.00;;
11616;SDS011;5864;52.998;9.068;2022-07-29T14:57:40;5.90;;;2.00;;
11616;SDS011;5864;52.998;9.068;2022-07-29T15:00:08;4.80;;;2.10;;
11616;SDS011;5864;52.998;9.068;2022-07-29T15:02:37;3.70;;;1.70;;
11616;SDS011;5864;52.998;9.068;2022-07-29T15:05:05;4.67;;;1.97;;
11616;SDS011;5864;52.998;9.068;2022-07-29T15:07:34;3.97;;;1.70;;
11616;SDS011;5864;52.998;9.068;2022-07-29T15:10:01;5.30;;;2.53;;
11616;SDS011;5864;52.998;9.068;2022-07-29T15:12:29;3.47;;;1.73;;
11616;SDS011;5864;52.998;9.068;2022-07-29T15:14:57;3.43;;;1.80;;
11616;SDS011;5864;52.998;9.068;2022-07-29T15:17:24;6.40;;;2.53;;
11616;SDS011;5864;52.998;9.068;2022-07-29T15:19:52;2.87;;;1.90;;
11616;SDS011;5864;52.998;9.068;2022-07-29T15:22:20;3.33;;;1.63;;
11616;SDS011;5864;52.998;9.068;2022-07-29T15:24:49;3.47;;;2.00;;